createdAt,value
2019-02-05T00:00:21.784Z,3.70
2019-02-05T00:01:21.779Z,3.60
2019-02-05T00:02:21.762Z,3.40
2019-02-05T00:03:21.781Z,3.40
2019-02-05T00:04:21.740Z,3.10
2019-02-05T00:05:21.738Z,3.80
2019-02-05T00:06:21.719Z,4.60
2019-02-05T00:07:21.710Z,4.10
2019-02-05T00:08:21.703Z,4.20
2019-02-05T00:09:21.716Z,4.40
2019-02-05T00:10:21.676Z,4.00
2019-02-05T00:11:21.667Z,4.00
2019-02-05T00:12:21.661Z,4.30
2019-02-05T00:13:21.644Z,4.10
2019-02-05T00:14:21.632Z,4.20
2019-02-05T00:15:21.640Z,3.60
2019-02-05T00:16:21.612Z,3.90
2019-02-05T00:17:21.598Z,3.70
2019-02-05T00:18:21.588Z,4.10
2019-02-05T00:19:21.577Z,4.40
2019-02-05T00:20:21.594Z,4.20
2019-02-05T00:21:21.553Z,5.00
2019-02-05T00:22:21.547Z,4.90
2019-02-05T00:23:21.584Z,4.70
2019-02-05T00:24:21.544Z,4.20
2019-02-05T00:25:21.512Z,4.30
2019-02-05T00:26:21.502Z,5.10
2019-02-05T00:27:21.501Z,4.20
2019-02-05T00:28:21.481Z,4.00
2019-02-05T00:29:21.471Z,4.20
2019-02-05T00:30:21.479Z,4.20
2019-02-05T00:31:21.445Z,4.00
2019-02-05T00:32:21.435Z,4.10
2019-02-05T00:33:21.452Z,5.00
2019-02-05T00:34:21.418Z,4.40
2019-02-05T00:35:21.404Z,4.70
2019-02-05T00:36:21.390Z,4.40
2019-02-05T00:37:21.383Z,4.20
2019-02-05T00:38:21.372Z,4.60
2019-02-05T00:39:21.380Z,4.80
2019-02-05T00:40:21.352Z,5.00
2019-02-05T00:41:21.340Z,4.60
2019-02-05T00:42:21.329Z,4.40
2019-02-05T00:43:21.320Z,5.40
2019-02-05T00:44:21.320Z,4.60
2019-02-05T00:45:21.294Z,4.70
2019-02-05T00:46:21.288Z,5.00
2019-02-05T00:47:21.279Z,4.80
2019-02-05T00:48:21.264Z,4.80
2019-02-05T00:49:21.286Z,4.20
2019-02-05T00:50:21.241Z,4.60
2019-02-05T00:51:21.231Z,5.10
2019-02-05T00:52:21.223Z,5.10
2019-02-05T00:53:21.209Z,5.20
2019-02-05T00:54:21.197Z,6.00
2019-02-05T00:55:21.217Z,5.10
2019-02-05T00:56:21.180Z,5.00
2019-02-05T00:57:21.170Z,5.60
2019-02-05T00:58:21.155Z,5.40
2019-02-05T00:59:21.144Z,5.80
2019-02-05T01:00:21.134Z,6.10
2019-02-05T01:01:21.140Z,5.50
2019-02-05T01:02:21.138Z,5.80
2019-02-05T01:03:21.098Z,5.90
2019-02-05T01:04:21.086Z,5.90
2019-02-05T01:05:21.080Z,5.80
2019-02-05T01:06:21.076Z,6.30
2019-02-05T01:07:21.055Z,6.40
2019-02-05T01:08:21.060Z,6.50
2019-02-05T01:09:21.035Z,7.30
2019-02-05T01:10:21.022Z,7.20
2019-02-05T01:11:21.012Z,6.30
2019-02-05T01:12:21.003Z,7.20
2019-02-05T01:13:21.005Z,7.30
2019-02-05T01:14:20.988Z,7.70
2019-02-05T01:15:20.968Z,7.60
2019-02-05T01:16:20.963Z,7.60
2019-02-05T01:17:20.946Z,8.20
2019-02-05T01:18:20.975Z,7.90
2019-02-05T01:19:20.924Z,8.20
2019-02-05T01:20:20.917Z,7.10
2019-02-05T01:21:20.905Z,8.70
2019-02-05T01:22:20.897Z,9.00
2019-02-05T01:23:20.884Z,8.50
2019-02-05T01:24:20.891Z,9.40
2019-02-05T01:25:20.860Z,8.90
2019-02-05T01:26:29.019Z,9.60
2019-02-05T01:27:21.841Z,10.30
2019-02-05T01:28:20.834Z,10.00
2019-02-05T01:29:20.838Z,9.70
2019-02-05T01:30:20.809Z,9.70
2019-02-05T01:31:20.794Z,9.60
2019-02-05T01:32:20.790Z,11.10
2019-02-05T01:33:20.773Z,10.80
2019-02-05T01:34:20.799Z,10.60
2019-02-05T01:35:20.755Z,10.70
2019-02-05T01:36:20.744Z,10.70
2019-02-05T01:37:20.731Z,9.40
2019-02-05T01:38:20.718Z,10.80
2019-02-05T01:39:20.717Z,11.00
2019-02-05T01:40:20.731Z,10.70
2019-02-05T01:41:20.688Z,11.50
2019-02-05T01:42:20.679Z,12.10
2019-02-05T01:43:20.669Z,12.40
2019-02-05T01:44:20.662Z,12.00
2019-02-05T01:45:20.653Z,12.20
2019-02-05T01:46:20.675Z,12.20
2019-02-05T01:47:20.628Z,12.80
2019-02-05T01:48:20.615Z,12.00
2019-02-05T01:49:27.642Z,12.50
2019-02-05T01:50:20.597Z,12.90
2019-02-05T01:51:20.580Z,12.30
2019-02-05T01:52:20.602Z,12.40
2019-02-05T01:53:20.561Z,11.80
2019-02-05T01:54:20.556Z,12.20
2019-02-05T01:55:20.540Z,13.20
2019-02-05T01:56:20.525Z,13.40
2019-02-05T01:57:20.517Z,12.80
2019-02-05T01:58:20.524Z,13.30
2019-02-05T01:59:20.494Z,13.20
2019-02-05T02:00:20.485Z,14.00
2019-02-05T02:01:20.472Z,13.60
2019-02-05T02:02:20.485Z,12.00
2019-02-05T02:03:20.452Z,13.10
2019-02-05T02:04:20.441Z,13.50
2019-02-05T02:05:20.432Z,12.70
2019-02-05T02:06:20.425Z,13.60
2019-02-05T02:07:20.430Z,12.80
2019-02-05T02:08:20.399Z,13.50
2019-02-05T02:09:20.386Z,13.10
2019-02-05T02:10:20.374Z,13.80
2019-02-05T02:11:20.364Z,13.20
2019-02-05T02:12:20.356Z,13.50
2019-02-05T02:13:20.370Z,13.70
2019-02-05T02:14:20.336Z,12.90
2019-02-05T02:15:20.321Z,13.00
2019-02-05T02:16:20.312Z,13.40
2019-02-05T02:17:20.302Z,13.30
2019-02-05T02:18:20.298Z,13.20
2019-02-05T02:19:20.301Z,13.60
2019-02-05T02:20:20.270Z,13.50
2019-02-05T02:21:20.257Z,13.90
2019-02-05T02:22:20.246Z,13.30
2019-02-05T02:23:20.238Z,12.80
2019-02-05T02:24:20.249Z,13.40
2019-02-05T02:25:20.216Z,13.60
2019-02-05T02:26:20.208Z,14.30
2019-02-05T02:27:20.195Z,13.50
2019-02-05T02:28:20.182Z,13.10
2019-02-05T02:29:20.186Z,13.60
2019-02-05T02:30:20.164Z,13.60
2019-02-05T02:31:20.153Z,12.90
2019-02-05T02:32:20.140Z,13.20
2019-02-05T02:33:20.134Z,13.70
2019-02-05T02:34:20.139Z,12.90
2019-02-05T02:35:20.115Z,13.40
2019-02-05T02:36:20.096Z,12.50
2019-02-05T02:37:20.091Z,13.90
2019-02-05T02:38:20.076Z,13.60
2019-02-05T02:39:20.100Z,13.40
2019-02-05T02:40:20.053Z,14.10
2019-02-05T02:41:20.042Z,13.30
2019-02-05T02:42:20.032Z,14.00
2019-02-05T02:43:20.020Z,13.50
2019-02-05T02:44:20.009Z,14.10
2019-02-05T02:45:20.017Z,13.30
2019-02-05T02:46:19.988Z,14.10
2019-02-05T02:47:19.985Z,14.10
2019-02-05T02:48:19.968Z,13.80
2019-02-05T02:49:19.963Z,13.70
2019-02-05T02:50:19.963Z,14.20
2019-02-05T02:51:19.943Z,14.60
2019-02-05T02:52:19.930Z,13.40
2019-02-05T02:53:19.915Z,14.50
2019-02-05T02:54:19.906Z,14.50
2019-02-05T02:55:19.931Z,15.20
2019-02-05T02:56:19.879Z,14.30
2019-02-05T02:57:19.870Z,14.30
2019-02-05T02:58:19.861Z,14.20
2019-02-05T02:59:19.848Z,13.80
2019-02-05T03:00:19.847Z,14.40
2019-02-05T03:01:19.901Z,14.10
2019-02-05T03:02:19.921Z,14.30
2019-02-05T03:03:19.807Z,14.60
2019-02-05T03:04:19.796Z,14.10
2019-02-05T03:05:19.783Z,13.40
2019-02-05T03:06:19.773Z,14.30
2019-02-05T03:07:19.778Z,14.00
2019-02-05T03:08:19.754Z,14.60
2019-02-05T03:09:19.740Z,14.80
2019-02-05T03:10:19.731Z,14.60
2019-02-05T03:11:19.722Z,14.70
2019-02-05T03:12:19.729Z,14.20
2019-02-05T03:13:19.700Z,14.80
2019-02-05T03:14:19.685Z,13.90
2019-02-05T03:15:19.686Z,14.10
2019-02-05T03:16:19.668Z,15.50
2019-02-05T03:17:19.680Z,14.40
2019-02-05T03:18:19.641Z,14.50
2019-02-05T03:19:19.632Z,13.80
2019-02-05T03:20:19.647Z,14.50
2019-02-05T03:21:19.610Z,14.70
2019-02-05T03:22:19.609Z,14.60
2019-02-05T03:23:19.588Z,15.00
2019-02-05T03:24:19.580Z,14.10
2019-02-05T03:25:19.567Z,14.30
2019-02-05T03:26:19.571Z,14.60
2019-02-05T03:27:19.548Z,14.20
2019-02-05T03:28:19.560Z,13.30
2019-02-05T03:29:19.522Z,15.70
2019-02-05T03:30:19.533Z,14.20
2019-02-05T03:31:19.507Z,15.10
2019-02-05T03:32:19.553Z,14.60
2019-02-05T03:33:19.514Z,14.90
2019-02-05T03:34:19.470Z,13.70
2019-02-05T03:35:19.458Z,15.20
2019-02-05T03:36:19.448Z,14.30
2019-02-05T03:37:19.470Z,14.90
2019-02-05T03:38:19.428Z,14.40
2019-02-05T03:39:19.422Z,14.30
2019-02-05T03:40:19.406Z,15.90
2019-02-05T03:41:19.396Z,13.30
2019-02-05T03:42:19.383Z,14.50
2019-02-05T03:43:19.393Z,15.00
2019-02-05T03:44:19.362Z,14.10
2019-02-05T03:45:19.357Z,14.00
2019-02-05T03:46:19.357Z,14.40
2019-02-05T03:47:19.330Z,14.90
2019-02-05T03:48:19.319Z,15.30
2019-02-05T03:49:19.308Z,14.80
2019-02-05T03:50:19.331Z,13.90
2019-02-05T03:51:19.286Z,15.00
2019-02-05T03:52:19.279Z,14.90
2019-02-05T03:53:19.273Z,14.90
2019-02-05T03:54:19.259Z,15.10
2019-02-05T03:55:19.295Z,14.40
2019-02-05T03:56:19.233Z,15.70
2019-02-05T03:57:30.708Z,15.00
2019-02-05T03:58:20.217Z,14.70
2019-02-05T03:59:19.200Z,14.50
2019-02-05T04:00:19.190Z,15.30
2019-02-05T04:01:19.199Z,14.50
2019-02-05T04:02:19.202Z,14.80
2019-02-05T04:03:19.161Z,15.50
2019-02-05T04:04:19.148Z,15.60
2019-02-05T04:05:19.136Z,15.30
2019-02-05T04:06:19.157Z,15.30
2019-02-05T04:07:19.123Z,15.80
2019-02-05T04:08:19.100Z,15.60
2019-02-05T04:09:19.094Z,16.20
2019-02-05T04:10:19.161Z,15.80
2019-02-05T04:11:19.069Z,15.40
2019-02-05T04:12:19.080Z,14.70
2019-02-05T04:13:19.069Z,15.80
2019-02-05T04:14:19.039Z,16.30
2019-02-05T04:15:19.027Z,15.80
2019-02-05T04:16:19.017Z,16.40
2019-02-05T04:17:19.009Z,15.50
2019-02-05T04:18:19.014Z,16.10
2019-02-05T04:19:18.982Z,16.10
2019-02-05T04:20:18.972Z,16.30
2019-02-05T04:21:18.970Z,16.00
2019-02-05T04:22:18.951Z,16.00
2019-02-05T04:23:18.971Z,16.60
2019-02-05T04:24:18.927Z,16.60
2019-02-05T04:25:18.925Z,15.60
2019-02-05T04:26:18.913Z,16.50
2019-02-05T04:27:18.896Z,15.90
2019-02-05T04:28:18.932Z,16.70
2019-02-05T04:29:18.913Z,15.80
2019-02-05T04:30:18.865Z,16.30
2019-02-05T04:31:18.856Z,16.60
2019-02-05T04:32:18.848Z,16.40
2019-02-05T04:33:18.834Z,16.70
2019-02-05T04:34:18.842Z,16.40
2019-02-05T04:35:18.813Z,15.90
2019-02-05T04:36:18.799Z,16.50
2019-02-05T04:37:18.792Z,16.40
2019-02-05T04:38:18.796Z,16.70
2019-02-05T04:39:18.767Z,16.50
2019-02-05T04:40:18.764Z,15.50
2019-02-05T04:41:18.754Z,16.30
2019-02-05T04:42:18.738Z,17.30
2019-02-05T04:43:18.750Z,15.90
2019-02-05T04:44:18.711Z,16.60
2019-02-05T04:45:18.707Z,16.80
2019-02-05T04:46:18.720Z,17.00
2019-02-05T04:47:18.682Z,16.80
2019-02-05T04:48:18.688Z,17.00
2019-02-05T04:49:18.656Z,15.90
2019-02-05T04:50:18.650Z,14.70
2019-02-05T04:51:18.639Z,16.50
2019-02-05T04:52:18.634Z,16.70
2019-02-05T04:53:18.668Z,16.40
2019-02-05T04:54:18.607Z,16.00
2019-02-05T04:55:18.593Z,16.30
2019-02-05T04:56:18.583Z,15.90
2019-02-05T04:57:18.573Z,16.60
2019-02-05T04:58:18.564Z,16.80
2019-02-05T04:59:18.596Z,16.60
2019-02-05T05:00:18.551Z,16.90
2019-02-05T05:01:18.534Z,16.80
2019-02-05T05:02:18.522Z,15.90
2019-02-05T05:03:18.507Z,16.20
2019-02-05T05:04:18.496Z,17.00
2019-02-05T05:05:18.523Z,16.20
2019-02-05T05:06:18.504Z,16.30
2019-02-05T05:07:18.464Z,17.10
2019-02-05T05:08:18.454Z,16.20
2019-02-05T05:09:18.451Z,17.20
2019-02-05T05:10:18.436Z,16.20
2019-02-05T05:11:18.457Z,17.60
2019-02-05T05:12:18.412Z,16.20
2019-02-05T05:13:18.401Z,15.70
2019-02-05T05:14:18.390Z,16.20
2019-02-05T05:15:18.380Z,16.70
2019-02-05T05:16:18.367Z,16.70
2019-02-05T05:17:18.383Z,17.40
2019-02-05T05:18:18.344Z,17.90
2019-02-05T05:19:18.336Z,16.90
2019-02-05T05:20:18.327Z,17.70
2019-02-05T05:21:18.317Z,16.90
2019-02-05T05:22:18.343Z,18.90
2019-02-05T05:23:18.289Z,16.90
2019-02-05T05:24:18.279Z,18.50
2019-02-05T05:25:18.272Z,18.20
2019-02-05T05:26:18.258Z,18.00
2019-02-05T05:27:18.257Z,18.40
2019-02-05T05:28:18.268Z,18.60
2019-02-05T05:29:18.228Z,18.20
2019-02-05T05:30:18.218Z,19.40
2019-02-05T05:31:18.205Z,19.00
2019-02-05T05:32:18.193Z,18.50
2019-02-05T05:33:18.182Z,17.80
2019-02-05T05:34:18.192Z,18.30
2019-02-05T05:35:18.191Z,19.30
2019-02-05T05:36:18.154Z,17.70
2019-02-05T05:37:18.140Z,19.00
2019-02-05T05:38:18.127Z,18.80
2019-02-05T05:39:18.124Z,19.60
2019-02-05T05:40:18.107Z,19.80
2019-02-05T05:41:18.121Z,20.60
2019-02-05T05:42:18.085Z,19.90
2019-02-05T05:43:18.078Z,20.10
2019-02-05T05:44:18.067Z,20.40
2019-02-05T05:45:18.057Z,20.60
2019-02-05T05:46:18.062Z,21.40
2019-02-05T05:47:18.032Z,20.80
2019-02-05T05:48:18.022Z,19.40
2019-02-05T05:49:18.009Z,20.30
2019-02-05T05:50:21.209Z,20.00
2019-02-05T05:51:17.996Z,19.90
2019-02-05T05:52:17.985Z,24.10
2019-02-05T05:53:17.973Z,22.90
2019-02-05T05:54:17.982Z,22.40
2019-02-05T05:55:17.947Z,21.30
2019-02-05T05:56:17.934Z,21.60
2019-02-05T05:57:18.757Z,22.60
2019-02-05T05:58:23.023Z,23.50
2019-02-05T05:59:18.908Z,20.50
2019-02-05T06:00:17.895Z,22.60
2019-02-05T06:01:17.882Z,24.10
2019-02-05T06:02:17.909Z,23.10
2019-02-05T06:03:17.970Z,18.60
2019-02-05T06:04:17.853Z,20.40
2019-02-05T06:05:17.843Z,24.30
2019-02-05T06:06:17.870Z,25.80
2019-02-05T06:07:17.818Z,25.40
2019-02-05T06:08:17.828Z,21.50
2019-02-05T06:09:17.800Z,25.10
2019-02-05T06:10:17.785Z,23.30
2019-02-05T06:11:17.776Z,25.00
2019-02-05T06:12:17.764Z,26.70
2019-02-05T06:13:17.773Z,26.90
2019-02-05T06:14:17.744Z,26.80
2019-02-05T06:15:17.739Z,27.40
2019-02-05T06:16:17.720Z,26.70
2019-02-05T06:17:17.709Z,26.90
2019-02-05T06:18:17.716Z,23.70
2019-02-05T06:19:17.688Z,27.40
2019-02-05T06:20:17.686Z,27.20
2019-02-05T06:21:17.694Z,28.70
2019-02-05T06:22:17.656Z,29.00
2019-02-05T06:23:17.644Z,28.70
2019-02-05T06:24:17.635Z,22.80
2019-02-05T06:25:17.626Z,30.40
2019-02-05T06:26:20.145Z,29.20
2019-02-05T06:27:17.645Z,29.30
2019-02-05T06:28:17.599Z,29.90
2019-02-05T06:29:17.582Z,27.80
2019-02-05T06:30:17.582Z,30.40
2019-02-05T06:31:17.558Z,30.20
2019-02-05T06:32:17.548Z,30.30
2019-02-05T06:33:17.559Z,32.90
2019-02-05T06:34:17.528Z,31.90
2019-02-05T06:35:17.557Z,30.50
2019-02-05T06:36:17.506Z,30.70
2019-02-05T06:37:17.503Z,33.40
2019-02-05T06:38:17.481Z,34.20
2019-02-05T06:39:17.472Z,34.00
2019-02-05T06:40:17.463Z,30.70
2019-02-05T06:41:17.471Z,33.60
2019-02-05T06:42:17.440Z,32.40
2019-02-05T06:43:17.430Z,33.90
2019-02-05T06:44:17.421Z,36.10
2019-02-05T06:45:17.452Z,34.90
2019-02-05T06:46:17.397Z,29.20
2019-02-05T06:47:17.386Z,35.10
2019-02-05T06:48:17.374Z,32.70
2019-02-05T06:49:17.364Z,36.40
2019-02-05T06:50:17.354Z,36.00
2019-02-05T06:51:17.384Z,33.20
2019-02-05T06:52:17.334Z,33.60
2019-02-05T06:53:17.329Z,36.60
2019-02-05T06:54:17.312Z,33.40
2019-02-05T06:55:17.299Z,30.30
2019-02-05T06:56:17.289Z,33.80
2019-02-05T06:57:17.315Z,32.70
2019-02-05T06:58:17.267Z,36.00
2019-02-05T06:59:17.260Z,36.90
2019-02-05T07:00:17.250Z,35.60
2019-02-05T07:01:17.237Z,37.10
2019-02-05T07:02:17.225Z,33.20
2019-02-05T07:03:17.235Z,32.10
2019-02-05T07:04:17.206Z,34.50
2019-02-05T07:05:17.201Z,39.20
2019-02-05T07:06:17.192Z,36.90
2019-02-05T07:07:17.178Z,40.20
2019-02-05T07:08:17.190Z,39.80
2019-02-05T07:09:17.179Z,37.00
2019-02-05T07:10:17.152Z,41.70
2019-02-05T07:11:17.139Z,41.20
2019-02-05T07:12:17.126Z,40.90
2019-02-05T07:13:17.142Z,39.90
2019-02-05T07:14:17.125Z,37.50
2019-02-05T07:15:17.092Z,40.00
2019-02-05T07:16:17.084Z,40.20
2019-02-05T07:17:17.074Z,40.40
2019-02-05T07:18:17.097Z,44.80
2019-02-05T07:19:17.053Z,42.70
2019-02-05T07:20:17.041Z,39.50
2019-02-05T07:21:17.031Z,39.30
2019-02-05T07:22:17.017Z,41.70
2019-02-05T07:23:17.008Z,43.60
2019-02-05T07:24:17.036Z,38.00
2019-02-05T07:25:16.987Z,36.60
2019-02-05T07:26:16.982Z,38.20
2019-02-05T07:27:16.965Z,39.50
2019-02-05T07:28:16.953Z,40.20
2019-02-05T07:29:16.941Z,42.30
2019-02-05T07:30:16.954Z,43.40
2019-02-05T07:31:16.921Z,41.90
2019-02-05T07:32:16.937Z,41.90
2019-02-05T07:33:16.904Z,42.70
2019-02-05T07:34:16.889Z,40.20
2019-02-05T07:35:16.880Z,41.80
2019-02-05T07:36:16.871Z,43.20
2019-02-05T07:37:16.879Z,37.60
2019-02-05T07:38:16.855Z,42.20
2019-02-05T07:39:16.835Z,42.80
2019-02-05T07:40:16.827Z,39.90
2019-02-05T07:41:16.812Z,43.30
2019-02-05T07:42:16.825Z,39.70
2019-02-05T07:43:16.851Z,43.30
2019-02-05T07:44:16.911Z,43.20
2019-02-05T07:45:16.771Z,44.50
2019-02-05T07:46:16.757Z,42.60
2019-02-05T07:47:16.751Z,41.60
2019-02-05T07:48:16.739Z,42.80
2019-02-05T07:49:16.749Z,42.20
2019-02-05T07:50:16.722Z,41.20
2019-02-05T07:51:16.732Z,42.50
2019-02-05T07:52:16.706Z,44.50
2019-02-05T07:53:16.733Z,45.00
2019-02-05T07:54:16.674Z,45.50
2019-02-05T07:55:16.670Z,43.70
2019-02-05T07:56:16.656Z,45.60
2019-02-05T07:57:16.644Z,44.90
2019-02-05T07:58:16.632Z,42.80
2019-02-05T07:59:16.652Z,46.60
2019-02-05T08:00:16.610Z,44.20
2019-02-05T08:01:17.676Z,43.80
2019-02-05T08:02:16.589Z,42.20
2019-02-05T08:03:16.576Z,41.30
2019-02-05T08:04:16.567Z,44.40
2019-02-05T08:05:16.595Z,45.60
2019-02-05T08:06:16.545Z,43.30
2019-02-05T08:07:16.535Z,42.80
2019-02-05T08:08:16.523Z,43.10
2019-02-05T08:09:16.509Z,46.80
2019-02-05T08:10:16.500Z,46.80
2019-02-05T08:11:16.509Z,45.20
2019-02-05T08:12:16.482Z,42.70
2019-02-05T08:13:16.471Z,46.30
2019-02-05T08:14:16.488Z,47.70
2019-02-05T08:15:16.448Z,42.90
2019-02-05T08:16:16.444Z,41.20
2019-02-05T08:17:16.424Z,37.90
2019-02-05T08:18:16.419Z,45.40
2019-02-05T08:19:16.401Z,47.10
2019-02-05T08:20:16.427Z,45.00
2019-02-05T08:21:16.380Z,39.70
2019-02-05T08:22:16.369Z,45.20
2019-02-05T08:23:16.359Z,45.80
2019-02-05T08:24:16.349Z,46.50
2019-02-05T08:25:16.338Z,46.30
2019-02-05T08:26:16.345Z,40.20
2019-02-05T08:27:16.337Z,45.70
2019-02-05T08:28:16.305Z,46.40
2019-02-05T08:29:21.653Z,46.90
2019-02-05T08:30:17.301Z,46.80
2019-02-05T08:31:16.275Z,46.50
2019-02-05T08:32:16.342Z,46.50
2019-02-05T08:33:16.252Z,44.40
2019-02-05T08:34:16.242Z,45.70
2019-02-05T08:35:16.230Z,45.70
2019-02-05T08:36:16.218Z,46.50
2019-02-05T08:37:16.211Z,45.80
2019-02-05T08:38:16.224Z,47.20
2019-02-05T08:39:17.990Z,47.40
2019-02-05T08:40:16.173Z,45.50
2019-02-05T08:41:16.162Z,46.20
2019-02-05T08:42:16.153Z,46.10
2019-02-05T08:43:16.163Z,43.60
2019-02-05T08:44:16.133Z,45.50
2019-02-05T08:45:16.122Z,44.40
2019-02-05T08:46:16.111Z,35.80
2019-02-05T08:47:16.100Z,44.10
2019-02-05T08:48:16.109Z,43.90
2019-02-05T08:49:16.082Z,43.60
2019-02-05T08:50:16.073Z,44.10
2019-02-05T08:51:16.055Z,43.30
2019-02-05T08:52:16.091Z,47.80
2019-02-05T08:53:16.040Z,46.20
2019-02-05T08:54:16.029Z,46.00
2019-02-05T08:55:16.013Z,43.30
2019-02-05T08:56:16.003Z,40.00
2019-02-05T08:57:16.000Z,42.90
2019-02-05T08:58:15.997Z,42.80
2019-02-05T08:59:15.970Z,41.90
2019-02-05T09:00:15.960Z,42.90
2019-02-05T09:01:15.954Z,44.40
2019-02-05T09:02:15.935Z,44.40
2019-02-05T09:03:15.969Z,43.70
2019-02-05T09:04:15.914Z,42.00
2019-02-05T09:05:15.905Z,44.80
2019-02-05T09:06:15.895Z,36.20
2019-02-05T09:07:15.885Z,42.90
2019-02-05T09:08:15.873Z,38.90
2019-02-05T09:09:15.877Z,42.50
2019-02-05T09:10:15.875Z,42.60
2019-02-05T09:11:15.846Z,41.20
2019-02-05T09:12:17.986Z,43.10
2019-02-05T09:13:15.816Z,37.90
2019-02-05T09:14:15.804Z,40.10
2019-02-05T09:15:15.814Z,42.60
2019-02-05T09:16:15.809Z,40.60
2019-02-05T09:17:15.776Z,40.80
2019-02-05T09:18:15.763Z,39.30
2019-02-05T09:19:15.752Z,39.40
2019-02-05T09:20:15.740Z,37.20
2019-02-05T09:21:15.735Z,37.30
2019-02-05T09:22:15.751Z,37.60
2019-02-05T09:23:15.709Z,39.20
2019-02-05T09:24:15.701Z,38.20
2019-02-05T09:25:15.685Z,38.90
2019-02-05T09:26:15.674Z,35.70
2019-02-05T09:27:15.662Z,39.40
2019-02-05T09:28:15.676Z,40.10
2019-02-05T09:29:15.643Z,38.90
2019-02-05T09:30:15.631Z,39.10
2019-02-05T09:31:15.670Z,39.70
2019-02-05T09:32:15.615Z,38.20
2019-02-05T09:33:15.619Z,38.60
2019-02-05T09:34:15.589Z,36.90
2019-02-05T09:35:15.574Z,39.80
2019-02-05T09:36:15.564Z,39.40
2019-02-05T09:37:15.553Z,38.20
2019-02-05T09:38:15.562Z,40.30
2019-02-05T09:39:15.555Z,36.20
2019-02-05T09:40:15.529Z,41.20
2019-02-05T09:41:15.517Z,37.50
2019-02-05T09:42:15.499Z,36.90
2019-02-05T09:43:15.535Z,41.80
2019-02-05T09:44:15.513Z,41.40
2019-02-05T09:45:15.470Z,35.70
2019-02-05T09:46:15.456Z,38.90
2019-02-05T09:47:15.445Z,38.00
2019-02-05T09:48:15.436Z,36.70
2019-02-05T09:49:15.424Z,36.90
2019-02-05T09:50:15.431Z,38.00
2019-02-05T09:51:15.403Z,36.90
2019-02-05T09:52:15.391Z,36.60
2019-02-05T09:53:15.381Z,29.80
2019-02-05T09:54:15.387Z,33.90
2019-02-05T09:55:15.380Z,36.10
2019-02-05T09:56:15.362Z,35.30
2019-02-05T09:57:15.341Z,35.60
2019-02-05T09:58:15.330Z,36.20
2019-02-05T09:59:15.342Z,33.40
2019-02-05T10:00:15.334Z,32.50
2019-02-05T10:01:15.295Z,38.20
2019-02-05T10:02:15.282Z,39.50
2019-02-05T10:03:15.273Z,37.10
2019-02-05T10:04:15.262Z,39.10
2019-02-05T10:05:15.253Z,40.10
2019-02-05T10:06:15.275Z,37.40
2019-02-05T10:07:15.228Z,37.30
2019-02-05T10:08:15.216Z,39.50
2019-02-05T10:09:15.212Z,40.30
2019-02-05T10:10:15.199Z,41.50
2019-02-05T10:11:15.185Z,43.10
2019-02-05T10:12:15.190Z,41.70
2019-02-05T10:13:15.161Z,41.70
2019-02-05T10:14:15.151Z,42.70
2019-02-05T10:15:15.140Z,41.60
2019-02-05T10:16:15.130Z,41.90
2019-02-05T10:17:15.136Z,43.90
2019-02-05T10:18:15.113Z,45.00
2019-02-05T10:19:15.100Z,43.60
2019-02-05T10:20:15.089Z,41.10
2019-02-05T10:21:15.072Z,39.00
2019-02-05T10:22:15.085Z,40.90
2019-02-05T10:23:15.054Z,41.70
2019-02-05T10:24:15.044Z,41.80
2019-02-05T10:25:15.129Z,41.40
2019-02-05T10:26:15.035Z,45.40
2019-02-05T10:27:15.043Z,39.40
2019-02-05T10:28:15.000Z,39.60
2019-02-05T10:29:14.988Z,44.70
2019-02-05T10:30:14.976Z,42.40
2019-02-05T10:31:14.965Z,44.90
2019-02-05T10:32:14.957Z,44.60
2019-02-05T10:33:14.984Z,45.00
2019-02-05T10:34:14.935Z,46.80
2019-02-05T10:35:14.923Z,45.50
2019-02-05T10:36:14.920Z,47.10
2019-02-05T10:37:14.906Z,43.90
2019-02-05T10:38:14.890Z,40.70
2019-02-05T10:39:14.929Z,42.60
2019-02-05T10:40:14.870Z,44.20
2019-02-05T10:41:14.857Z,43.30
2019-02-05T10:42:14.845Z,42.30
2019-02-05T10:43:14.838Z,42.10
2019-02-05T10:44:14.826Z,44.70
2019-02-05T10:45:14.836Z,45.40
2019-02-05T10:46:14.802Z,39.20
2019-02-05T10:47:14.792Z,38.60
2019-02-05T10:48:14.787Z,38.90
2019-02-05T10:49:14.772Z,42.30
2019-02-05T10:50:14.779Z,39.60
2019-02-05T10:51:14.749Z,41.70
2019-02-05T10:52:14.739Z,42.70
2019-02-05T10:53:14.775Z,42.30
2019-02-05T10:54:14.718Z,41.40
2019-02-05T10:55:14.710Z,32.20
2019-02-05T10:56:14.695Z,38.70
2019-02-05T10:57:14.688Z,39.10
2019-02-05T10:58:14.671Z,39.00
2019-02-05T10:59:14.680Z,39.50
2019-02-05T11:00:14.650Z,39.50
2019-02-05T11:01:14.645Z,35.30
2019-02-05T11:02:14.639Z,33.10
2019-02-05T11:03:14.657Z,37.40
2019-02-05T11:04:14.614Z,37.70
2019-02-05T11:05:14.599Z,32.40
2019-02-05T11:06:14.683Z,37.00
2019-02-05T11:07:14.577Z,38.00
2019-02-05T11:08:14.566Z,36.10
2019-02-05T11:09:14.591Z,32.20
2019-02-05T11:10:14.542Z,34.00
2019-02-05T11:11:14.532Z,27.20
2019-02-05T11:12:14.521Z,34.70
2019-02-05T11:13:14.513Z,33.50
2019-02-05T11:14:14.498Z,34.20
2019-02-05T11:15:14.520Z,33.40
2019-02-05T11:16:14.477Z,33.40
2019-02-05T11:17:14.465Z,33.90
2019-02-05T11:18:14.458Z,33.30
2019-02-05T11:19:14.445Z,33.00
2019-02-05T11:20:14.473Z,33.30
2019-02-05T11:21:14.421Z,32.00
2019-02-05T11:22:14.512Z,28.80
2019-02-05T11:23:14.398Z,31.00
2019-02-05T11:24:14.388Z,30.80
2019-02-05T11:25:14.381Z,31.60
2019-02-05T11:26:14.386Z,32.90
2019-02-05T11:27:14.356Z,31.80
2019-02-05T11:28:14.346Z,33.00
2019-02-05T11:29:14.336Z,29.50
2019-02-05T11:30:20.190Z,34.40
2019-02-05T11:31:15.357Z,31.10
2019-02-05T11:32:14.302Z,32.30
2019-02-05T11:33:14.291Z,34.10
2019-02-05T11:34:14.283Z,35.70
2019-02-05T11:35:14.278Z,34.30
2019-02-05T11:36:14.267Z,34.80
2019-02-05T11:37:14.282Z,34.10
2019-02-05T11:38:14.240Z,30.30
2019-02-05T11:39:14.235Z,33.00
2019-02-05T11:40:14.220Z,31.50
2019-02-05T11:41:14.208Z,32.10
2019-02-05T11:42:14.196Z,30.80
2019-02-05T11:43:14.206Z,31.20
2019-02-05T11:44:14.171Z,31.30
2019-02-05T11:45:14.173Z,32.90
2019-02-05T11:46:14.151Z,32.70
2019-02-05T11:47:14.143Z,33.80
2019-02-05T11:48:14.131Z,32.90
2019-02-05T11:49:14.137Z,33.10
2019-02-05T11:50:14.119Z,29.70
2019-02-05T11:51:14.096Z,32.80
2019-02-05T11:52:14.093Z,31.50
2019-02-05T11:53:14.089Z,32.80
2019-02-05T11:54:14.064Z,30.50
2019-02-05T11:55:14.050Z,30.40
2019-02-05T11:56:14.109Z,31.60
2019-02-05T11:57:14.031Z,28.30
2019-02-05T11:58:14.021Z,29.90
2019-02-05T11:59:14.009Z,26.20
2019-02-05T12:00:13.999Z,28.50
2019-02-05T12:01:14.008Z,28.20
2019-02-05T12:02:13.985Z,27.70
2019-02-05T12:03:13.963Z,21.70
2019-02-05T12:04:13.952Z,26.20
2019-02-05T12:05:13.944Z,26.90
2019-02-05T12:06:13.936Z,25.20
2019-02-05T12:07:13.932Z,25.10
2019-02-05T12:08:13.917Z,24.50
2019-02-05T12:09:13.897Z,22.70
2019-02-05T12:10:13.910Z,24.90
2019-02-05T12:11:13.883Z,23.60
2019-02-05T12:12:13.864Z,24.30
2019-02-05T12:13:13.858Z,23.30
2019-02-05T12:14:13.845Z,24.50
2019-02-05T12:15:13.835Z,22.40
2019-02-05T12:16:13.845Z,24.70
2019-02-05T12:17:13.815Z,21.80
2019-02-05T12:18:13.807Z,23.80
2019-02-05T12:19:13.790Z,24.70
2019-02-05T12:20:13.780Z,22.50
2019-02-05T12:21:13.801Z,23.10
2019-02-05T12:22:13.758Z,22.80
2019-02-05T12:23:13.747Z,23.40
2019-02-05T12:24:13.737Z,21.60
2019-02-05T12:25:13.733Z,21.40
2019-02-05T12:26:13.725Z,22.20
2019-02-05T12:27:13.739Z,22.50
2019-02-05T12:28:13.689Z,20.20
2019-02-05T12:29:13.681Z,17.80
2019-02-05T12:30:13.674Z,19.60
2019-02-05T12:31:13.664Z,21.00
2019-02-05T12:32:13.645Z,17.50
2019-02-05T12:33:13.660Z,18.50
2019-02-05T12:34:13.627Z,16.40
2019-02-05T12:35:13.619Z,18.20
2019-02-05T12:36:13.606Z,17.90
2019-02-05T12:37:13.591Z,18.50
2019-02-05T12:38:13.585Z,17.60
2019-02-05T12:39:13.596Z,14.60
2019-02-05T12:40:13.560Z,17.40
2019-02-05T12:41:13.547Z,16.90
2019-02-05T12:42:13.538Z,14.40
2019-02-05T12:43:13.558Z,18.40
2019-02-05T12:44:13.515Z,18.40
2019-02-05T12:45:13.521Z,17.80
2019-02-05T12:46:13.602Z,18.40
2019-02-05T12:47:13.482Z,18.10
2019-02-05T12:48:13.472Z,16.40
2019-02-05T12:49:14.849Z,18.30
2019-02-05T12:50:13.492Z,17.50
2019-02-05T12:51:13.440Z,18.00
2019-02-05T12:52:13.437Z,17.30
2019-02-05T12:53:13.422Z,17.00
2019-02-05T12:54:13.414Z,17.50
2019-02-05T12:55:15.586Z,17.70